Optimus — V7HU6 — position and weather

sailwx.info

Track history (hours):
 
Tides and Currents Weather Stations Pressure Air Temp Water Temp Dewpoint Dewpoint Depression Visibility Wind Speed Wind Dir Waves Ship Positions

Optimus

Last reported at 2018-Jan-18 14:37 UTC. Time now 2018-Jun-21 16:27 UTC.
Position N 05°58' E 001°11'.
Warning: this ship's position is months out of date.

Length 231 m; draft 8 m.

Type: Ship. MMSI: 538005882.

Date/timePositionNaut miles runAvg speedWind from/ knotsBaromVisibWave heightAir tempDewpointWater temp
2018-Jan-18 14:37N 05°58' E 001°11'211.5
2018-Jan-18 14:28N 05°59' E 001°11'8 1.2
2018-Jan-18 07:30N 06°04' E 001°18'0 0.0
2018-Jan-18 05:54N 06°04' E 001°18'0 0.0
2018-Jan-18 05:24N 06°04' E 001°18'0 0.0
2018-Jan-18 05:00N 06°04' E 001°18'0 0.0
2018-Jan-18 04:21N 06°04' E 001°18'0 0.0
2018-Jan-18 04:00N 06°04' E 001°18'0 0.0
2018-Jan-18 03:30N 06°04' E 001°18'0 0.0
2018-Jan-18 02:36N 06°04' E 001°18'0 0.0
2018-Jan-18 02:30N 06°04' E 001°18'0 0.1
2018-Jan-18 02:00N 06°04' E 001°18'0 0.0
2018-Jan-18 01:30N 06°04' E 001°18'0 0.0
2018-Jan-18 01:00N 06°04' E 001°18'0 0.0
2018-Jan-18 00:00N 06°04' E 001°18'0 0.0
2018-Jan-17 23:57N 06°04' E 001°18'  
2018-Jan-11 22:09N 05°58' E 001°13'0 0.0
2018-Jan-11 22:00N 05°58' E 001°13'0 0.0
2018-Jan-11 21:15N 05°58' E 001°13'0 0.0
2018-Jan-11 20:21N 05°58' E 001°13'0 0.0
2018-Jan-11 20:00N 05°58' E 001°13'0 0.0
2018-Jan-11 19:21N 05°58' E 001°13'0 0.0
2018-Jan-11 19:00N 05°58' E 001°13'0 0.0
2018-Jan-11 18:30N 05°58' E 001°13'0 0.0
2018-Jan-11 18:00N 05°58' E 001°13'0 0.0
2018-Jan-11 17:24N 05°58' E 001°13'0 0.2
2018-Jan-11 16:57N 05°58' E 001°13'0 0.4
2018-Jan-11 16:30N 05°58' E 001°13'1 1.1
2018-Jan-11 16:00N 05°57' E 001°13'1 2.2
2018-Jan-11 15:30N 05°56' E 001°13'1 1.2
2018-Jan-11 14:58N 05°56' E 001°13'0 0.2
2018-Jan-11 14:30N 05°56' E 001°13'0 0.2
2018-Jan-11 14:00N 05°56' E 001°13'1 1.5
2018-Jan-11 13:30N 05°57' E 001°13'1 1.9
2018-Jan-11 13:00N 05°57' E 001°13'0 0.1
2018-Jan-11 10:30N 05°57' E 001°12'0 0.2
2018-Jan-11 09:33N 05°58' E 001°13'0 0.1
2018-Jan-11 09:30N 05°58' E 001°13'0 0.1
2018-Jan-11 08:35N 05°58' E 001°12'0 0.7
2018-Jan-11 08:30N 05°58' E 001°13'0 0.1
2018-Jan-11 08:00N 05°58' E 001°12'0 0.0
2018-Jan-11 07:22N 05°58' E 001°12'0 0.1
2018-Jan-11 06:55N 05°58' E 001°12'0 0.0
2018-Jan-11 04:58N 05°58' E 001°12'0 0.0
2018-Jan-11 04:25N 05°58' E 001°12'0 0.1
2018-Jan-11 03:49N 05°58' E 001°12'0 0.0
2018-Jan-11 03:28N 05°58' E 001°12'0 0.0
2018-Jan-11 02:58N 05°58' E 001°12'0 0.0
2018-Jan-11 02:10N 05°58' E 001°12'0 0.1
2018-Jan-11 01:58N 05°58' E 001°12'0 0.0
2018-Jan-11 01:10N 05°58' E 001°12'0 0.1
2018-Jan-10 23:34N 05°58' E 001°12'0 0.0
2018-Jan-10 23:22N 05°58' E 001°12'0 0.0
2018-Jan-10 22:52N 05°58' E 001°12'0 0.0
2018-Jan-10 22:22N 05°58' E 001°12'0 0.1
2018-Jan-10 21:34N 05°58' E 001°12'0 0.1
2018-Jan-10 21:28N 05°58' E 001°12'0 0.0
2018-Jan-10 20:55N 05°58' E 001°12'0 0.0
2018-Jan-10 20:28N 05°58' E 001°12'0 0.0
2018-Jan-10 19:58N 05°58' E 001°12'0 0.0
2018-Jan-10 19:16N 05°58' E 001°12'0 0.0
2018-Jan-10 18:58N 05°58' E 001°12'0 0.1
2018-Jan-10 18:28N 05°58' E 001°12'0 0.0
2018-Jan-10 17:58N 05°58' E 001°12'0 0.1
2018-Jan-10 17:28N 05°58' E 001°12'3 0.1
2018-Jan-08 20:50N 06°00' E 001°13'0 0.0
2018-Jan-08 19:29N 06°01' E 001°13'0 0.0
2018-Jan-08 18:59N 06°01' E 001°13'0 0.0
2018-Jan-08 18:29N 06°01' E 001°13'  
Track history (hours):
 
Tides and Currents Weather Stations Pressure Air Temp Water Temp Dewpoint Dewpoint Depression Visibility Wind Speed Wind Dir Waves Ship Positions

Optimus

Last reported at 2018-Jan-18 14:37 UTC. Time now 2018-Jun-21 16:27 UTC.
Position N 05°58' E 001°11'.
Warning: this ship's position is months out of date.

Length 231 m; draft 8 m.

Type: Ship. MMSI: 538005882.

Date/timePositionNaut miles runAvg speedWind from/ knotsBaromVisibWave heightAir tempDewpointWater temp
2018-Jan-18 14:37N 05°58' E 001°11'211.5
2018-Jan-18 14:28N 05°59' E 001°11'8 1.2
2018-Jan-18 07:30N 06°04' E 001°18'0 0.0
2018-Jan-18 05:54N 06°04' E 001°18'0 0.0
2018-Jan-18 05:24N 06°04' E 001°18'0 0.0
2018-Jan-18 05:00N 06°04' E 001°18'0 0.0
2018-Jan-18 04:21N 06°04' E 001°18'0 0.0
2018-Jan-18 04:00N 06°04' E 001°18'0 0.0
2018-Jan-18 03:30N 06°04' E 001°18'0 0.0
2018-Jan-18 02:36N 06°04' E 001°18'0 0.0
2018-Jan-18 02:30N 06°04' E 001°18'0 0.1
2018-Jan-18 02:00N 06°04' E 001°18'0 0.0
2018-Jan-18 01:30N 06°04' E 001°18'0 0.0
2018-Jan-18 01:00N 06°04' E 001°18'0 0.0
2018-Jan-18 00:00N 06°04' E 001°18'0 0.0
2018-Jan-17 23:57N 06°04' E 001°18'  
2018-Jan-11 22:09N 05°58' E 001°13'0 0.0
2018-Jan-11 22:00N 05°58' E 001°13'0 0.0
2018-Jan-11 21:15N 05°58' E 001°13'0 0.0
2018-Jan-11 20:21N 05°58' E 001°13'0 0.0
2018-Jan-11 20:00N 05°58' E 001°13'0 0.0
2018-Jan-11 19:21N 05°58' E 001°13'0 0.0
2018-Jan-11 19:00N 05°58' E 001°13'0 0.0
2018-Jan-11 18:30N 05°58' E 001°13'0 0.0
2018-Jan-11 18:00N 05°58' E 001°13'0 0.0
2018-Jan-11 17:24N 05°58' E 001°13'0 0.2
2018-Jan-11 16:57N 05°58' E 001°13'0 0.4
2018-Jan-11 16:30N 05°58' E 001°13'1 1.1
2018-Jan-11 16:00N 05°57' E 001°13'1 2.2
2018-Jan-11 15:30N 05°56' E 001°13'1 1.2
2018-Jan-11 14:58N 05°56' E 001°13'0 0.2
2018-Jan-11 14:30N 05°56' E 001°13'0 0.2
2018-Jan-11 14:00N 05°56' E 001°13'1 1.5
2018-Jan-11 13:30N 05°57' E 001°13'1 1.9
2018-Jan-11 13:00N 05°57' E 001°13'0 0.1
2018-Jan-11 10:30N 05°57' E 001°12'0 0.2
2018-Jan-11 09:33N 05°58' E 001°13'0 0.1
2018-Jan-11 09:30N 05°58' E 001°13'0 0.1
2018-Jan-11 08:35N 05°58' E 001°12'0 0.7
2018-Jan-11 08:30N 05°58' E 001°13'0 0.1
2018-Jan-11 08:00N 05°58' E 001°12'0 0.0
2018-Jan-11 07:22N 05°58' E 001°12'0 0.1
2018-Jan-11 06:55N 05°58' E 001°12'0 0.0
2018-Jan-11 04:58N 05°58' E 001°12'0 0.0
2018-Jan-11 04:25N 05°58' E 001°12'0 0.1
2018-Jan-11 03:49N 05°58' E 001°12'0 0.0
2018-Jan-11 03:28N 05°58' E 001°12'0 0.0
2018-Jan-11 02:58N 05°58' E 001°12'0 0.0
2018-Jan-11 02:10N 05°58' E 001°12'0 0.1
2018-Jan-11 01:58N 05°58' E 001°12'0 0.0
2018-Jan-11 01:10N 05°58' E 001°12'0 0.1
2018-Jan-10 23:34N 05°58' E 001°12'0 0.0
2018-Jan-10 23:22N 05°58' E 001°12'0 0.0
2018-Jan-10 22:52N 05°58' E 001°12'0 0.0
2018-Jan-10 22:22N 05°58' E 001°12'0 0.1
2018-Jan-10 21:34N 05°58' E 001°12'0 0.1
2018-Jan-10 21:28N 05°58' E 001°12'0 0.0
2018-Jan-10 20:55N 05°58' E 001°12'0 0.0
2018-Jan-10 20:28N 05°58' E 001°12'0 0.0
2018-Jan-10 19:58N 05°58' E 001°12'0 0.0
2018-Jan-10 19:16N 05°58' E 001°12'0 0.0
2018-Jan-10 18:58N 05°58' E 001°12'0 0.1
2018-Jan-10 18:28N 05°58' E 001°12'0 0.0
2018-Jan-10 17:58N 05°58' E 001°12'0 0.1
2018-Jan-10 17:28N 05°58' E 001°12'3 0.1
2018-Jan-08 20:50N 06°00' E 001°13'0 0.0
2018-Jan-08 19:29N 06°01' E 001°13'0 0.0
2018-Jan-08 18:59N 06°01' E 001°13'0 0.0
2018-Jan-08 18:29N 06°01' E 001°13'  

Dump ship's entire track history